sensor_id;sensor_type;location;lat;lon;timestamp;P1;durP1;ratioP1;P2;durP2;ratioP2
55069;SDS011;40967;52.070;8.596;2022-09-09T00:06:43;0.30;;;0.10;;
55069;SDS011;40967;52.070;8.596;2022-09-09T00:09:13;0.93;;;0.10;;
55069;SDS011;40967;52.070;8.596;2022-09-09T00:14:50;0.10;;;0.10;;
55069;SDS011;40967;52.070;8.596;2022-09-09T00:17:36;0.20;;;0.10;;
55069;SDS011;40967;52.070;8.596;2022-09-09T00:20:11;0.30;;;0.03;;
55069;SDS011;40967;52.070;8.596;2022-09-09T00:22:41;0.10;;;0.07;;
55069;SDS011;40967;52.070;8.596;2022-09-09T00:25:15;0.17;;;0.10;;
55069;SDS011;40967;52.070;8.596;2022-09-09T00:28:04;0.20;;;0.10;;
55069;SDS011;40967;52.070;8.596;2022-09-09T00:30:42;0.20;;;0.10;;
55069;SDS011;40967;52.070;8.596;2022-09-09T00:33:10;0.90;;;0.10;;
55069;SDS011;40967;52.070;8.596;2022-09-09T00:35:56;0.47;;;0.20;;
55069;SDS011;40967;52.070;8.596;2022-09-09T00:38:24;0.40;;;0.20;;
55069;SDS011;40967;52.070;8.596;2022-09-09T00:43:57;0.80;;;0.25;;
55069;SDS011;40967;52.070;8.596;2022-09-09T00:49:22;0.55;;;0.20;;
55069;SDS011;40967;52.070;8.596;2022-09-09T00:57:34;0.57;;;0.20;;
55069;SDS011;40967;52.070;8.596;2022-09-09T01:02:51;0.10;;;0.10;;
55069;SDS011;40967;52.070;8.596;2022-09-09T01:05:23;0.45;;;0.13;;
55069;SDS011;40967;52.070;8.596;2022-09-09T01:07:59;0.30;;;0.10;;
55069;SDS011;40967;52.070;8.596;2022-09-09T01:10:46;0.10;;;0.10;;
55069;SDS011;40967;52.070;8.596;2022-09-09T01:16:00;1.08;;;0.50;;
55069;SDS011;40967;52.070;8.596;2022-09-09T01:18:34;0.73;;;0.30;;
55069;SDS011;40967;52.070;8.596;2022-09-09T01:21:05;0.88;;;0.30;;
55069;SDS011;40967;52.070;8.596;2022-09-09T01:26:46;0.70;;;0.20;;
55069;SDS011;40967;52.070;8.596;2022-09-09T01:29:16;0.20;;;0.17;;
55069;SDS011;40967;52.070;8.596;2022-09-09T01:34:17;1.73;;;0.20;;
55069;SDS011;40967;52.070;8.596;2022-09-09T01:36:47;0.43;;;0.22;;
55069;SDS011;40967;52.070;8.596;2022-09-09T01:39:24;0.90;;;0.30;;
55069;SDS011;40967;52.070;8.596;2022-09-09T01:41:51;0.50;;;0.30;;
55069;SDS011;40967;52.070;8.596;2022-09-09T01:44:17;0.68;;;0.30;;
55069;SDS011;40967;52.070;8.596;2022-09-09T01:46:44;1.30;;;0.30;;
55069;SDS011;40967;52.070;8.596;2022-09-09T01:49:09;0.40;;;0.30;;
55069;SDS011;40967;52.070;8.596;2022-09-09T01:51:36;0.30;;;0.30;;
55069;SDS011;40967;52.070;8.596;2022-09-09T01:54:04;0.55;;;0.28;;
55069;SDS011;40967;52.070;8.596;2022-09-09T02:08:08;0.40;;;0.20;;
55069;SDS011;40967;52.070;8.596;2022-09-09T02:10:46;0.95;;;0.30;;
55069;SDS011;40967;52.070;8.596;2022-09-09T02:13:18;0.65;;;0.20;;
55069;SDS011;40967;52.070;8.596;2022-09-09T02:15:53;0.57;;;0.30;;
55069;SDS011;40967;52.070;8.596;2022-09-09T02:18:24;0.28;;;0.13;;
55069;SDS011;40967;52.070;8.596;2022-09-09T02:20:54;0.40;;;0.20;;
55069;SDS011;40967;52.070;8.596;2022-09-09T02:23:22;0.55;;;0.20;;
55069;SDS011;40967;52.070;8.596;2022-09-09T02:25:48;0.57;;;0.20;;
55069;SDS011;40967;52.070;8.596;2022-09-09T02:28:16;0.10;;;0.10;;
55069;SDS011;40967;52.070;8.596;2022-09-09T02:30:46;0.50;;;0.28;;
55069;SDS011;40967;52.070;8.596;2022-09-09T02:33:19;0.50;;;0.20;;
55069;SDS011;40967;52.070;8.596;2022-09-09T02:35:51;0.40;;;0.28;;
55069;SDS011;40967;52.070;8.596;2022-09-09T02:38:17;0.20;;;0.17;;
55069;SDS011;40967;52.070;8.596;2022-09-09T02:40:47;0.35;;;0.20;;
55069;SDS011;40967;52.070;8.596;2022-09-09T02:43:14;0.28;;;0.15;;
55069;SDS011;40967;52.070;8.596;2022-09-09T02:45:42;0.13;;;0.10;;
55069;SDS011;40967;52.070;8.596;2022-09-09T02:54:13;0.40;;;0.10;;
55069;SDS011;40967;52.070;8.596;2022-09-09T02:56:48;0.10;;;0.10;;
55069;SDS011;40967;52.070;8.596;2022-09-09T02:59:17;0.20;;;0.20;;
55069;SDS011;40967;52.070;8.596;2022-09-09T03:01:43;0.20;;;0.10;;
55069;SDS011;40967;52.070;8.596;2022-09-09T03:04:09;0.30;;;0.10;;
55069;SDS011;40967;52.070;8.596;2022-09-09T03:06:34;0.30;;;0.10;;
55069;SDS011;40967;52.070;8.596;2022-09-09T03:09:00;0.13;;;0.13;;
55069;SDS011;40967;52.070;8.596;2022-09-09T03:11:27;0.10;;;0.10;;
55069;SDS011;40967;52.070;8.596;2022-09-09T03:13:53;0.50;;;0.20;;
55069;SDS011;40967;52.070;8.596;2022-09-09T03:16:20;0.20;;;0.10;;
55069;SDS011;40967;52.070;8.596;2022-09-09T03:18:46;0.30;;;0.10;;
55069;SDS011;40967;52.070;8.596;2022-09-09T03:21:12;0.27;;;0.20;;
55069;SDS011;40967;52.070;8.596;2022-09-09T03:23:37;0.50;;;0.17;;
55069;SDS011;40967;52.070;8.596;2022-09-09T03:26:02;0.73;;;0.20;;
55069;SDS011;40967;52.070;8.596;2022-09-09T03:28:28;0.20;;;0.10;;
55069;SDS011;40967;52.070;8.596;2022-09-09T03:31:02;0.25;;;0.10;;
55069;SDS011;40967;52.070;8.596;2022-09-09T03:33:29;0.20;;;0.10;;
55069;SDS011;40967;52.070;8.596;2022-09-09T03:35:56;0.15;;;0.10;;
55069;SDS011;40967;52.070;8.596;2022-09-09T03:38:22;0.60;;;0.20;;
55069;SDS011;40967;52.070;8.596;2022-09-09T03:40:57;0.50;;;0.22;;
55069;SDS011;40967;52.070;8.596;2022-09-09T03:43:23;0.30;;;0.20;;
55069;SDS011;40967;52.070;8.596;2022-09-09T03:45:50;0.47;;;0.20;;
55069;SDS011;40967;52.070;8.596;2022-09-09T03:48:16;0.60;;;0.30;;
55069;SDS011;40967;52.070;8.596;2022-09-09T03:50:49;0.27;;;0.20;;
55069;SDS011;40967;52.070;8.596;2022-09-09T03:53:16;0.35;;;0.20;;
55069;SDS011;40967;52.070;8.596;2022-09-09T03:55:47;0.20;;;0.10;;
55069;SDS011;40967;52.070;8.596;2022-09-09T03:58:15;0.60;;;0.20;;
55069;SDS011;40967;52.070;8.596;2022-09-09T04:00:41;0.40;;;0.20;;
55069;SDS011;40967;52.070;8.596;2022-09-09T04:03:09;0.35;;;0.20;;
55069;SDS011;40967;52.070;8.596;2022-09-09T04:05:35;0.35;;;0.20;;
55069;SDS011;40967;52.070;8.596;2022-09-09T04:08:05;0.40;;;0.25;;
55069;SDS011;40967;52.070;8.596;2022-09-09T04:10:33;0.25;;;0.20;;
55069;SDS011;40967;52.070;8.596;2022-09-09T04:12:59;0.53;;;0.20;;
55069;SDS011;40967;52.070;8.596;2022-09-09T04:15:25;0.22;;;0.17;;
55069;SDS011;40967;52.070;8.596;2022-09-09T04:17:50;0.40;;;0.20;;
55069;SDS011;40967;52.070;8.596;2022-09-09T04:20:16;0.90;;;0.20;;
55069;SDS011;40967;52.070;8.596;2022-09-09T04:22:41;0.80;;;0.30;;
55069;SDS011;40967;52.070;8.596;2022-09-09T04:25:06;0.30;;;0.20;;
55069;SDS011;40967;52.070;8.596;2022-09-09T04:27:33;0.40;;;0.20;;
55069;SDS011;40967;52.070;8.596;2022-09-09T04:29:58;0.50;;;0.20;;
55069;SDS011;40967;52.070;8.596;2022-09-09T04:32:23;0.43;;;0.20;;
55069;SDS011;40967;52.070;8.596;2022-09-09T04:34:51;0.52;;;0.20;;
55069;SDS011;40967;52.070;8.596;2022-09-09T04:37:17;0.32;;;0.10;;
55069;SDS011;40967;52.070;8.596;2022-09-09T04:39:42;0.53;;;0.20;;
55069;SDS011;40967;52.070;8.596;2022-09-09T04:42:07;0.43;;;0.20;;
55069;SDS011;40967;52.070;8.596;2022-09-09T04:44:33;0.53;;;0.23;;
55069;SDS011;40967;52.070;8.596;2022-09-09T04:46:58;0.27;;;0.20;;
55069;SDS011;40967;52.070;8.596;2022-09-09T04:49:24;0.70;;;0.30;;
55069;SDS011;40967;52.070;8.596;2022-09-09T04:51:49;0.60;;;0.30;;
55069;SDS011;40967;52.070;8.596;2022-09-09T04:54:14;0.47;;;0.20;;
55069;SDS011;40967;52.070;8.596;2022-09-09T04:56:40;0.73;;;0.23;;
55069;SDS011;40967;52.070;8.596;2022-09-09T04:59:07;0.20;;;0.20;;
55069;SDS011;40967;52.070;8.596;2022-09-09T05:01:32;0.40;;;0.20;;
55069;SDS011;40967;52.070;8.596;2022-09-09T05:03:58;0.45;;;0.20;;
55069;SDS011;40967;52.070;8.596;2022-09-09T05:06:23;0.50;;;0.20;;
55069;SDS011;40967;52.070;8.596;2022-09-09T05:08:49;0.80;;;0.30;;
55069;SDS011;40967;52.070;8.596;2022-09-09T05:11:27;0.40;;;0.20;;
55069;SDS011;40967;52.070;8.596;2022-09-09T05:13:57;0.50;;;0.30;;
55069;SDS011;40967;52.070;8.596;2022-09-09T05:16:23;0.40;;;0.20;;
55069;SDS011;40967;52.070;8.596;2022-09-09T05:18:49;0.20;;;0.13;;
55069;SDS011;40967;52.070;8.596;2022-09-09T05:21:16;0.30;;;0.20;;
55069;SDS011;40967;52.070;8.596;2022-09-09T05:23:42;0.50;;;0.30;;
55069;SDS011;40967;52.070;8.596;2022-09-09T05:26:09;0.20;;;0.10;;
55069;SDS011;40967;52.070;8.596;2022-09-09T05:28:38;0.20;;;0.13;;
55069;SDS011;40967;52.070;8.596;2022-09-09T05:31:07;0.30;;;0.17;;
55069;SDS011;40967;52.070;8.596;2022-09-09T05:33:34;0.25;;;0.20;;
55069;SDS011;40967;52.070;8.596;2022-09-09T05:36:02;0.57;;;0.30;;
55069;SDS011;40967;52.070;8.596;2022-09-09T05:38:29;0.32;;;0.20;;
55069;SDS011;40967;52.070;8.596;2022-09-09T05:40:56;0.90;;;0.30;;
55069;SDS011;40967;52.070;8.596;2022-09-09T05:43:22;0.80;;;0.30;;
55069;SDS011;40967;52.070;8.596;2022-09-09T05:45:48;0.63;;;0.25;;
55069;SDS011;40967;52.070;8.596;2022-09-09T05:48:27;0.50;;;0.30;;
55069;SDS011;40967;52.070;8.596;2022-09-09T05:50:53;0.57;;;0.30;;
55069;SDS011;40967;52.070;8.596;2022-09-09T05:53:19;0.82;;;0.40;;
55069;SDS011;40967;52.070;8.596;2022-09-09T05:55:45;1.33;;;0.40;;
55069;SDS011;40967;52.070;8.596;2022-09-09T05:58:10;0.90;;;0.40;;
55069;SDS011;40967;52.070;8.596;2022-09-09T06:00:36;0.50;;;0.30;;
55069;SDS011;40967;52.070;8.596;2022-09-09T06:03:02;0.60;;;0.30;;
55069;SDS011;40967;52.070;8.596;2022-09-09T06:05:28;0.47;;;0.30;;
55069;SDS011;40967;52.070;8.596;2022-09-09T06:07:54;0.25;;;0.20;;
55069;SDS011;40967;52.070;8.596;2022-09-09T06:10:20;0.50;;;0.20;;
55069;SDS011;40967;52.070;8.596;2022-09-09T06:12:45;0.40;;;0.23;;
55069;SDS011;40967;52.070;8.596;2022-09-09T06:15:10;1.23;;;0.50;;
55069;SDS011;40967;52.070;8.596;2022-09-09T06:17:36;0.33;;;0.30;;
55069;SDS011;40967;52.070;8.596;2022-09-09T06:20:02;0.80;;;0.40;;
55069;SDS011;40967;52.070;8.596;2022-09-09T06:22:28;1.13;;;0.47;;
55069;SDS011;40967;52.070;8.596;2022-09-09T06:24:53;0.30;;;0.22;;
55069;SDS011;40967;52.070;8.596;2022-09-09T06:27:18;1.08;;;0.40;;
55069;SDS011;40967;52.070;8.596;2022-09-09T06:29:44;0.50;;;0.25;;
55069;SDS011;40967;52.070;8.596;2022-09-09T06:32:09;0.73;;;0.30;;
55069;SDS011;40967;52.070;8.596;2022-09-09T06:34:34;0.32;;;0.28;;
55069;SDS011;40967;52.070;8.596;2022-09-09T06:37:01;1.27;;;0.35;;
55069;SDS011;40967;52.070;8.596;2022-09-09T06:39:26;1.00;;;0.30;;
55069;SDS011;40967;52.070;8.596;2022-09-09T06:41:52;1.00;;;0.33;;
55069;SDS011;40967;52.070;8.596;2022-09-09T06:44:18;0.82;;;0.30;;
55069;SDS011;40967;52.070;8.596;2022-09-09T06:46:44;1.50;;;0.50;;
55069;SDS011;40967;52.070;8.596;2022-09-09T06:49:12;1.30;;;0.50;;
55069;SDS011;40967;52.070;8.596;2022-09-09T06:51:38;4.07;;;0.93;;
55069;SDS011;40967;52.070;8.596;2022-09-09T06:54:11;2.10;;;0.57;;
55069;SDS011;40967;52.070;8.596;2022-09-09T06:56:38;2.47;;;0.60;;
55069;SDS011;40967;52.070;8.596;2022-09-09T06:59:08;1.10;;;0.38;;
55069;SDS011;40967;52.070;8.596;2022-09-09T07:01:35;1.55;;;0.55;;
55069;SDS011;40967;52.070;8.596;2022-09-09T07:04:02;2.10;;;0.50;;
55069;SDS011;40967;52.070;8.596;2022-09-09T07:06:32;1.05;;;0.40;;
55069;SDS011;40967;52.070;8.596;2022-09-09T07:09:03;1.15;;;0.40;;
55069;SDS011;40967;52.070;8.596;2022-09-09T07:11:31;2.50;;;0.60;;
55069;SDS011;40967;52.070;8.596;2022-09-09T07:13:59;1.48;;;0.50;;
55069;SDS011;40967;52.070;8.596;2022-09-09T07:16:26;1.60;;;0.53;;
55069;SDS011;40967;52.070;8.596;2022-09-09T07:18:52;1.73;;;0.52;;
55069;SDS011;40967;52.070;8.596;2022-09-09T07:21:22;0.80;;;0.30;;
55069;SDS011;40967;52.070;8.596;2022-09-09T07:23:49;0.93;;;0.30;;
55069;SDS011;40967;52.070;8.596;2022-09-09T07:26:16;1.13;;;0.33;;
55069;SDS011;40967;52.070;8.596;2022-09-09T07:28:44;0.40;;;0.25;;
55069;SDS011;40967;52.070;8.596;2022-09-09T07:31:20;0.60;;;0.20;;
55069;SDS011;40967;52.070;8.596;2022-09-09T07:33:48;0.68;;;0.30;;
55069;SDS011;40967;52.070;8.596;2022-09-09T07:38:40;1.23;;;0.40;;
55069;SDS011;40967;52.070;8.596;2022-09-09T07:41:09;0.68;;;0.20;;
55069;SDS011;40967;52.070;8.596;2022-09-09T07:43:39;0.52;;;0.28;;
55069;SDS011;40967;52.070;8.596;2022-09-09T07:46:06;0.40;;;0.13;;
55069;SDS011;40967;52.070;8.596;2022-09-09T07:48:33;0.60;;;0.20;;
55069;SDS011;40967;52.070;8.596;2022-09-09T07:51:03;1.00;;;0.40;;
55069;SDS011;40967;52.070;8.596;2022-09-09T07:53:44;0.30;;;0.10;;
55069;SDS011;40967;52.070;8.596;2022-09-09T07:56:11;0.68;;;0.20;;
55069;SDS011;40967;52.070;8.596;2022-09-09T07:58:40;2.05;;;0.32;;
55069;SDS011;40967;52.070;8.596;2022-09-09T08:01:25;1.60;;;0.30;;
55069;SDS011;40967;52.070;8.596;2022-09-09T08:03:59;1.77;;;0.50;;
55069;SDS011;40967;52.070;8.596;2022-09-09T08:06:26;1.00;;;0.40;;
55069;SDS011;40967;52.070;8.596;2022-09-09T08:08:54;0.83;;;0.33;;
55069;SDS011;40967;52.070;8.596;2022-09-09T08:11:20;1.17;;;0.50;;
55069;SDS011;40967;52.070;8.596;2022-09-09T08:13:47;0.80;;;0.40;;
55069;SDS011;40967;52.070;8.596;2022-09-09T08:16:15;1.33;;;0.50;;
55069;SDS011;40967;52.070;8.596;2022-09-09T08:18:48;1.13;;;0.40;;
55069;SDS011;40967;52.070;8.596;2022-09-09T08:21:21;1.17;;;0.40;;
55069;SDS011;40967;52.070;8.596;2022-09-09T08:23:50;0.73;;;0.40;;
55069;SDS011;40967;52.070;8.596;2022-09-09T08:26:21;2.10;;;0.50;;
55069;SDS011;40967;52.070;8.596;2022-09-09T08:28:49;1.70;;;0.65;;
55069;SDS011;40967;52.070;8.596;2022-09-09T08:31:19;1.05;;;0.40;;
55069;SDS011;40967;52.070;8.596;2022-09-09T08:33:49;1.50;;;0.40;;
55069;SDS011;40967;52.070;8.596;2022-09-09T08:36:15;1.53;;;0.37;;
55069;SDS011;40967;52.070;8.596;2022-09-09T08:38:47;2.70;;;0.70;;
55069;SDS011;40967;52.070;8.596;2022-09-09T08:43:46;2.45;;;0.65;;
55069;SDS011;40967;52.070;8.596;2022-09-09T08:46:16;0.95;;;0.40;;
55069;SDS011;40967;52.070;8.596;2022-09-09T08:48:58;1.10;;;0.40;;
55069;SDS011;40967;52.070;8.596;2022-09-09T08:51:31;2.83;;;0.60;;
55069;SDS011;40967;52.070;8.596;2022-09-09T08:53:58;2.85;;;0.77;;
55069;SDS011;40967;52.070;8.596;2022-09-09T08:56:26;2.83;;;1.10;;
55069;SDS011;40967;52.070;8.596;2022-09-09T08:58:54;1.30;;;0.40;;
55069;SDS011;40967;52.070;8.596;2022-09-09T09:09:34;3.05;;;0.80;;
55069;SDS011;40967;52.070;8.596;2022-09-09T09:12:05;1.92;;;0.50;;
55069;SDS011;40967;52.070;8.596;2022-09-09T09:14:40;1.75;;;0.52;;
55069;SDS011;40967;52.070;8.596;2022-09-09T09:17:07;3.10;;;0.68;;
55069;SDS011;40967;52.070;8.596;2022-09-09T09:19:38;2.05;;;0.57;;
55069;SDS011;40967;52.070;8.596;2022-09-09T09:27:15;2.00;;;0.40;;
55069;SDS011;40967;52.070;8.596;2022-09-09T09:29:52;1.45;;;0.43;;
55069;SDS011;40967;52.070;8.596;2022-09-09T09:32:23;1.70;;;0.50;;
55069;SDS011;40967;52.070;8.596;2022-09-09T09:34:59;2.17;;;0.50;;
55069;SDS011;40967;52.070;8.596;2022-09-09T09:37:34;2.83;;;0.88;;
55069;SDS011;40967;52.070;8.596;2022-09-09T09:40:10;1.20;;;0.40;;
55069;SDS011;40967;52.070;8.596;2022-09-09T09:42:37;1.75;;;0.40;;
55069;SDS011;40967;52.070;8.596;2022-09-09T09:48:10;1.17;;;0.40;;
55069;SDS011;40967;52.070;8.596;2022-09-09T09:50:50;2.65;;;0.60;;
55069;SDS011;40967;52.070;8.596;2022-09-09T09:53:24;2.38;;;0.60;;
55069;SDS011;40967;52.070;8.596;2022-09-09T09:55:53;1.15;;;0.30;;
55069;SDS011;40967;52.070;8.596;2022-09-09T09:58:27;1.50;;;0.40;;
55069;SDS011;40967;52.070;8.596;2022-09-09T10:00:57;2.33;;;0.50;;
55069;SDS011;40967;52.070;8.596;2022-09-09T10:03:34;1.10;;;0.30;;
55069;SDS011;40967;52.070;8.596;2022-09-09T10:06:05;0.80;;;0.25;;
55069;SDS011;40967;52.070;8.596;2022-09-09T10:08:33;1.73;;;0.43;;
55069;SDS011;40967;52.070;8.596;2022-09-09T10:19:20;2.93;;;0.50;;
55069;SDS011;40967;52.070;8.596;2022-09-09T10:32:56;3.42;;;0.60;;
55069;SDS011;40967;52.070;8.596;2022-09-09T10:35:35;2.13;;;0.40;;
55069;SDS011;40967;52.070;8.596;2022-09-09T10:44:11;1.87;;;0.50;;
55069;SDS011;40967;52.070;8.596;2022-09-09T10:52:26;0.68;;;0.35;;
55069;SDS011;40967;52.070;8.596;2022-09-09T10:55:19;2.03;;;0.50;;
55069;SDS011;40967;52.070;8.596;2022-09-09T10:57:51;2.00;;;0.70;;
55069;SDS011;40967;52.070;8.596;2022-09-09T11:02:47;2.87;;;0.50;;
55069;SDS011;40967;52.070;8.596;2022-09-09T11:19:19;3.38;;;0.90;;
55069;SDS011;40967;52.070;8.596;2022-09-09T11:21:53;1.90;;;0.50;;
55069;SDS011;40967;52.070;8.596;2022-09-09T11:27:20;2.60;;;0.60;;
55069;SDS011;40967;52.070;8.596;2022-09-09T11:30:18;1.55;;;0.50;;
55069;SDS011;40967;52.070;8.596;2022-09-09T11:38:10;2.53;;;0.60;;
55069;SDS011;40967;52.070;8.596;2022-09-09T11:40:43;2.10;;;0.52;;
55069;SDS011;40967;52.070;8.596;2022-09-09T11:43:10;0.80;;;0.37;;
55069;SDS011;40967;52.070;8.596;2022-09-09T11:45:38;1.60;;;0.40;;
55069;SDS011;40967;52.070;8.596;2022-09-09T11:48:58;0.98;;;0.30;;
55069;SDS011;40967;52.070;8.596;2022-09-09T11:51:35;1.20;;;0.40;;
55069;SDS011;40967;52.070;8.596;2022-09-09T11:56:55;1.00;;;0.30;;
55069;SDS011;40967;52.070;8.596;2022-09-09T11:59:23;0.77;;;0.20;;
55069;SDS011;40967;52.070;8.596;2022-09-09T12:12:35;1.17;;;0.30;;
55069;SDS011;40967;52.070;8.596;2022-09-09T12:17:42;3.00;;;0.60;;
55069;SDS011;40967;52.070;8.596;2022-09-09T12:28:58;1.73;;;0.43;;
55069;SDS011;40967;52.070;8.596;2022-09-09T12:35:02;1.70;;;0.30;;
55069;SDS011;40967;52.070;8.596;2022-09-09T12:37:42;1.70;;;0.50;;
55069;SDS011;40967;52.070;8.596;2022-09-09T12:40:23;1.15;;;0.30;;
55069;SDS011;40967;52.070;8.596;2022-09-09T12:42:54;1.15;;;0.30;;
55069;SDS011;40967;52.070;8.596;2022-09-09T12:45:30;0.70;;;0.20;;
55069;SDS011;40967;52.070;8.596;2022-09-09T12:50:50;1.35;;;0.43;;
55069;SDS011;40967;52.070;8.596;2022-09-09T12:53:25;1.73;;;0.60;;
55069;SDS011;40967;52.070;8.596;2022-09-09T12:55:57;1.20;;;0.30;;
55069;SDS011;40967;52.070;8.596;2022-09-09T12:58:33;1.63;;;0.50;;
55069;SDS011;40967;52.070;8.596;2022-09-09T13:01:02;0.95;;;0.20;;
55069;SDS011;40967;52.070;8.596;2022-09-09T13:03:54;1.13;;;0.30;;
55069;SDS011;40967;52.070;8.596;2022-09-09T13:06:35;1.52;;;0.35;;
55069;SDS011;40967;52.070;8.596;2022-09-09T13:09:12;0.93;;;0.30;;
55069;SDS011;40967;52.070;8.596;2022-09-09T13:12:06;1.30;;;0.30;;
55069;SDS011;40967;52.070;8.596;2022-09-09T13:14:52;0.98;;;0.30;;
55069;SDS011;40967;52.070;8.596;2022-09-09T13:17:23;0.52;;;0.20;;
55069;SDS011;40967;52.070;8.596;2022-09-09T13:19:51;1.10;;;0.20;;
55069;SDS011;40967;52.070;8.596;2022-09-09T13:25:04;0.85;;;0.32;;
55069;SDS011;40967;52.070;8.596;2022-09-09T13:30:36;0.82;;;0.28;;
55069;SDS011;40967;52.070;8.596;2022-09-09T13:33:28;0.95;;;0.20;;
55069;SDS011;40967;52.070;8.596;2022-09-09T13:36:12;1.35;;;0.30;;
55069;SDS011;40967;52.070;8.596;2022-09-09T13:39:12;1.60;;;0.50;;
55069;SDS011;40967;52.070;8.596;2022-09-09T13:42:05;1.73;;;0.40;;
55069;SDS011;40967;52.070;8.596;2022-09-09T13:44:50;3.28;;;0.52;;
55069;SDS011;40967;52.070;8.596;2022-09-09T13:49:46;2.25;;;0.50;;
55069;SDS011;40967;52.070;8.596;2022-09-09T13:52:12;1.77;;;0.50;;
55069;SDS011;40967;52.070;8.596;2022-09-09T13:54:49;1.48;;;0.40;;
55069;SDS011;40967;52.070;8.596;2022-09-09T13:57:25;1.30;;;0.38;;
55069;SDS011;40967;52.070;8.596;2022-09-09T13:59:52;0.95;;;0.30;;
55069;SDS011;40967;52.070;8.596;2022-09-09T14:02:22;1.52;;;0.30;;
55069;SDS011;40967;52.070;8.596;2022-09-09T14:04:48;1.50;;;0.30;;
55069;SDS011;40967;52.070;8.596;2022-09-09T14:07:21;0.90;;;0.25;;
55069;SDS011;40967;52.070;8.596;2022-09-09T14:10:12;0.88;;;0.28;;
55069;SDS011;40967;52.070;8.596;2022-09-09T14:12:43;0.52;;;0.20;;
55069;SDS011;40967;52.070;8.596;2022-09-09T14:15:12;1.70;;;0.50;;
55069;SDS011;40967;52.070;8.596;2022-09-09T14:17:41;0.77;;;0.20;;
55069;SDS011;40967;52.070;8.596;2022-09-09T14:20:10;0.70;;;0.30;;
55069;SDS011;40967;52.070;8.596;2022-09-09T14:22:53;2.15;;;0.45;;
55069;SDS011;40967;52.070;8.596;2022-09-09T14:28:50;1.05;;;0.22;;
55069;SDS011;40967;52.070;8.596;2022-09-09T14:31:20;0.80;;;0.22;;
55069;SDS011;40967;52.070;8.596;2022-09-09T14:33:53;0.40;;;0.20;;
55069;SDS011;40967;52.070;8.596;2022-09-09T14:36:24;0.70;;;0.20;;
55069;SDS011;40967;52.070;8.596;2022-09-09T14:38:55;0.10;;;0.10;;
55069;SDS011;40967;52.070;8.596;2022-09-09T14:41:26;1.10;;;0.20;;
55069;SDS011;40967;52.070;8.596;2022-09-09T14:44:14;1.20;;;0.20;;
55069;SDS011;40967;52.070;8.596;2022-09-09T14:46:56;0.60;;;0.20;;
55069;SDS011;40967;52.070;8.596;2022-09-09T14:49:34;0.85;;;0.20;;
55069;SDS011;40967;52.070;8.596;2022-09-09T14:52:04;0.93;;;0.20;;
55069;SDS011;40967;52.070;8.596;2022-09-09T14:54:34;1.13;;;0.30;;
55069;SDS011;40967;52.070;8.596;2022-09-09T14:57:24;0.75;;;0.25;;
55069;SDS011;40967;52.070;8.596;2022-09-09T15:00:16;0.25;;;0.10;;
55069;SDS011;40967;52.070;8.596;2022-09-09T15:02:46;0.50;;;0.10;;
55069;SDS011;40967;52.070;8.596;2022-09-09T15:05:28;0.40;;;0.10;;
55069;SDS011;40967;52.070;8.596;2022-09-09T15:08:05;0.65;;;0.20;;
55069;SDS011;40967;52.070;8.596;2022-09-09T15:10:32;1.00;;;0.30;;
55069;SDS011;40967;52.070;8.596;2022-09-09T15:13:26;1.52;;;0.35;;
55069;SDS011;40967;52.070;8.596;2022-09-09T15:19:18;1.47;;;0.30;;
55069;SDS011;40967;52.070;8.596;2022-09-09T15:21:50;1.63;;;0.25;;
55069;SDS011;40967;52.070;8.596;2022-09-09T15:24:16;1.33;;;0.50;;
55069;SDS011;40967;52.070;8.596;2022-09-09T15:26:47;0.60;;;0.20;;
55069;SDS011;40967;52.070;8.596;2022-09-09T15:29:41;1.65;;;0.45;;
55069;SDS011;40967;52.070;8.596;2022-09-09T15:32:12;1.25;;;0.30;;
55069;SDS011;40967;52.070;8.596;2022-09-09T15:35:00;0.20;;;0.10;;
55069;SDS011;40967;52.070;8.596;2022-09-09T15:37:45;0.35;;;0.20;;
55069;SDS011;40967;52.070;8.596;2022-09-09T15:40:13;0.20;;;0.07;;
55069;SDS011;40967;52.070;8.596;2022-09-09T15:49:24;0.10;;;0.10;;
55069;SDS011;40967;52.070;8.596;2022-09-09T15:51:52;0.43;;;0.20;;
55069;SDS011;40967;52.070;8.596;2022-09-09T15:57:17;0.87;;;0.20;;
55069;SDS011;40967;52.070;8.596;2022-09-09T15:59:43;0.80;;;0.30;;
55069;SDS011;40967;52.070;8.596;2022-09-09T16:02:12;1.20;;;0.20;;
55069;SDS011;40967;52.070;8.596;2022-09-09T16:04:44;1.23;;;0.23;;
55069;SDS011;40967;52.070;8.596;2022-09-09T16:07:30;0.30;;;0.10;;
55069;SDS011;40967;52.070;8.596;2022-09-09T16:13:19;0.70;;;0.20;;
55069;SDS011;40967;52.070;8.596;2022-09-09T16:16:03;0.50;;;0.20;;
55069;SDS011;40967;52.070;8.596;2022-09-09T16:18:35;0.50;;;0.10;;
55069;SDS011;40967;52.070;8.596;2022-09-09T16:24:01;0.13;;;0.00;;
55069;SDS011;40967;52.070;8.596;2022-09-09T16:26:35;0.30;;;0.10;;
55069;SDS011;40967;52.070;8.596;2022-09-09T16:29:03;0.35;;;0.10;;
55069;SDS011;40967;52.070;8.596;2022-09-09T16:31:34;0.40;;;0.10;;
55069;SDS011;40967;52.070;8.596;2022-09-09T16:34:01;0.60;;;0.10;;
55069;SDS011;40967;52.070;8.596;2022-09-09T16:36:34;0.55;;;0.10;;
55069;SDS011;40967;52.070;8.596;2022-09-09T16:40:03;0.57;;;0.20;;
55069;SDS011;40967;52.070;8.596;2022-09-09T16:42:13;0.60;;;0.20;;
55069;SDS011;40967;52.070;8.596;2022-09-09T16:44:38;0.40;;;0.10;;
55069;SDS011;40967;52.070;8.596;2022-09-09T16:47:05;0.37;;;0.23;;
55069;SDS011;40967;52.070;8.596;2022-09-09T16:50:02;0.30;;;0.10;;
55069;SDS011;40967;52.070;8.596;2022-09-09T16:52:35;0.40;;;0.20;;
55069;SDS011;40967;52.070;8.596;2022-09-09T16:55:01;0.20;;;0.10;;
55069;SDS011;40967;52.070;8.596;2022-09-09T16:57:26;1.37;;;0.30;;
55069;SDS011;40967;52.070;8.596;2022-09-09T16:59:56;2.05;;;0.40;;
55069;SDS011;40967;52.070;8.596;2022-09-09T17:02:24;1.45;;;0.30;;
55069;SDS011;40967;52.070;8.596;2022-09-09T17:04:50;1.27;;;0.30;;
55069;SDS011;40967;52.070;8.596;2022-09-09T17:07:15;1.50;;;0.35;;
55069;SDS011;40967;52.070;8.596;2022-09-09T17:12:30;1.23;;;0.40;;
55069;SDS011;40967;52.070;8.596;2022-09-09T17:14:57;1.23;;;0.30;;
55069;SDS011;40967;52.070;8.596;2022-09-09T17:17:24;1.15;;;0.30;;
55069;SDS011;40967;52.070;8.596;2022-09-09T17:19:49;0.95;;;0.40;;
55069;SDS011;40967;52.070;8.596;2022-09-09T17:22:15;1.00;;;0.40;;
55069;SDS011;40967;52.070;8.596;2022-09-09T17:24:41;0.93;;;0.20;;
55069;SDS011;40967;52.070;8.596;2022-09-09T17:27:06;1.73;;;0.50;;
55069;SDS011;40967;52.070;8.596;2022-09-09T17:29:32;1.70;;;0.40;;
55069;SDS011;40967;52.070;8.596;2022-09-09T17:32:01;0.80;;;0.30;;
55069;SDS011;40967;52.070;8.596;2022-09-09T17:34:27;0.60;;;0.30;;
55069;SDS011;40967;52.070;8.596;2022-09-09T17:36:58;0.50;;;0.22;;
55069;SDS011;40967;52.070;8.596;2022-09-09T17:39:54;0.20;;;0.10;;
55069;SDS011;40967;52.070;8.596;2022-09-09T17:42:20;0.10;;;0.10;;
55069;SDS011;40967;52.070;8.596;2022-09-09T17:44:46;0.20;;;0.10;;
55069;SDS011;40967;52.070;8.596;2022-09-09T17:47:12;0.20;;;0.10;;
55069;SDS011;40967;52.070;8.596;2022-09-09T17:49:38;0.32;;;0.00;;
55069;SDS011;40967;52.070;8.596;2022-09-09T17:52:22;0.20;;;0.10;;
55069;SDS011;40967;52.070;8.596;2022-09-09T17:55:05;0.10;;;0.00;;
55069;SDS011;40967;52.070;8.596;2022-09-09T17:57:32;0.20;;;0.10;;
55069;SDS011;40967;52.070;8.596;2022-09-09T18:00:11;0.10;;;0.08;;
55069;SDS011;40967;52.070;8.596;2022-09-09T18:02:37;0.10;;;0.10;;
55069;SDS011;40967;52.070;8.596;2022-09-09T18:05:03;0.00;;;0.00;;
55069;SDS011;40967;52.070;8.596;2022-09-09T18:07:28;0.57;;;0.20;;
55069;SDS011;40967;52.070;8.596;2022-09-09T18:09:54;0.87;;;0.40;;
55069;SDS011;40967;52.070;8.596;2022-09-09T18:12:20;1.50;;;0.50;;
55069;SDS011;40967;52.070;8.596;2022-09-09T18:14:56;0.60;;;0.40;;
55069;SDS011;40967;52.070;8.596;2022-09-09T18:17:22;0.80;;;0.40;;
55069;SDS011;40967;52.070;8.596;2022-09-09T18:19:49;1.13;;;0.57;;
55069;SDS011;40967;52.070;8.596;2022-09-09T18:22:39;1.83;;;0.88;;